Flight Track Log - Related Links

Times and Time Zones

All times are in EDT time to prevent confusion due to time zone crossing. See the EJA947 flight status page for this flight to view local times or setup timezone preferences in your user account.

Time Position Orientation Groundspeed Altitude Reporting Facility
EDT Latitude Longitude Course Direction KTS MPH feet Rate Location/Type
Sun 07:48:23 PM 38.7319 -90.2808 119° Southeast 162 186 1,700  Level FAA TRACON SMA TRACON (SMA)
Sun 07:48:42 PM 38.7222 -90.2583 119° Southeast 182 209 2,800 2,615 Climbing FAA TRACON SMA TRACON (SMA)
Sun 07:49:02 PM 38.7139 -90.2386 118° Southeast 201 231 3,400 2,049 Climbing FAA TRACON SMA TRACON (SMA)
Sun 07:49:23 PM 38.7050 -90.2172 118° Southeast 217 250 4,200 2,400 Climbing FAA TRACON SMA TRACON (SMA)
Sun 07:49:42 PM 38.6933 -90.1889 118° Southeast 230 265 5,000 1,846 Climbing FAA TRACON SMA TRACON (SMA)
Sun 07:50:02 PM 38.6817 -90.1689 127° Southeast 236 272 5,400 1,024 Climbing FAA TRACON SMA TRACON (SMA)
Sun 07:50:23 PM 38.6639 -90.1625 164° South 232 267 5,700 900 Climbing FAA TRACON SMA TRACON (SMA)
Sun 07:50:42 PM 38.6447 -90.1778 212° Southwest 229 264 6,000 462 Climbing FAA TRACON SMA TRACON (SMA)
Sun 07:51:02 PM 38.6383 -90.2025 252° West 238 274 6,000 732 Level FAA TRACON SMA TRACON (SMA)
Sun 07:51:23 PM 38.6400 -90.2289 275° West 245 282 6,500 1,950 Climbing FAA TRACON SMA TRACON (SMA)
Sun 07:51:42 PM 38.6461 -90.2631 283° West 252 290 7,300 2,462 Climbing FAA TRACON SMA TRACON (SMA)
Sun 07:52:02 PM 38.6511 -90.2894 284° West 252 290 8,100 2,049 Climbing FAA TRACON SMA TRACON (SMA)
Sun 07:52:23 PM 38.6564 -90.3161 284° West 250 288 8,700 1,800 Climbing FAA TRACON SMA TRACON (SMA)
Sun 07:52:42 PM 38.6614 -90.3450 283° West 265 305 9,300 2,308 Climbing FAA TRACON SMA TRACON (SMA)
Sun 07:53:02 PM 38.6681 -90.3839 282° West 292 336 10,200 2,049 Climbing FAA TRACON SMA TRACON (SMA)
Sun 07:53:23 PM 38.6750 -90.4169 285° West 308 354 10,700 1,350 Climbing FAA TRACON SMA TRACON (SMA)
Sun 07:53:42 PM 38.6822 -90.4508 285° West 319 367 11,100 1,385 Climbing FAA TRACON SMA TRACON (SMA)
Sun 07:54:02 PM 38.6939 -90.4939 289° West 332 382 11,600 1,171 Climbing FAA TRACON SMA TRACON (SMA)
Sun 07:54:23 PM 38.7061 -90.5281 295° West 341 392 11,900 600 Climbing FAA TRACON SMA TRACON (SMA)
Sun 07:54:42 PM 38.7186 -90.5631 295° West 346 398 12,000 154 Climbing FAA TRACON SMA TRACON (SMA)
Sun 07:55:02 PM 38.7308 -90.6075 289° West 347 399 12,000 429 Level FAA TRACON SMA TRACON (SMA)
Sun 07:55:24 PM 38.7386 -90.6442 285° West 346 398 12,300 1,463 Climbing FAA TRACON SMA TRACON (SMA)
Sun 07:55:43 PM 38.7469 -90.6806 286° West 346 398 13,000 2,211 Climbing FAA TRACON SMA TRACON (SMA)
Sun 07:56:02 PM 38.7567 -90.7167 289° West 349 402 13,700 2,100 Climbing FAA TRACON SMA TRACON (SMA)
Sun 07:56:23 PM 38.7772 -90.7583 302° West 360 414 14,400 1,902 Climbing FAA TRACON SMA TRACON (SMA)
Sun 07:56:43 PM 38.8011 -90.7858 318° Northwest 372 428 15,000 2,154 Climbing FAA TRACON SMA TRACON (SMA)
Sun 07:57:02 PM 38.8333 -90.8186 322° Northwest 382 440 15,800 2,000 Climbing FAA TRACON SMA TRACON (SMA)
Sun 07:57:22 PM 38.8589 -90.8453 321° Northwest 384 442 16,300 1,610 Climbing FAA TRACON SMA TRACON (SMA)
Sun 07:57:43 PM 38.8853 -90.8711 323° Northwest 385 443 16,900 2,250 Climbing FAA TRACON SMA TRACON (SMA)
Sun 07:58:02 PM 38.9178 -90.9033 322° Northwest 383 441 17,800 2,550 Climbing FAA TRACON SMA TRACON (SMA)
Sun 07:58:23 PM 38.9436 -90.9289 322° Northwest 381 438 18,600 1,902 Climbing FAA TRACON SMA TRACON (SMA)
Sun 07:58:43 PM 38.9694 -90.9550 322° Northwest 383 441 19,100 1,385 Climbing FAA TRACON SMA TRACON (SMA)
Sun 07:59:02 PM 38.9961 -90.9811 323° Northwest 384 442 19,500 1,650 Climbing FAA TRACON SMA TRACON (SMA)
Sun 07:59:23 PM 39.0283 -91.0139 322° Northwest 385 443 20,200 1,714 Climbing FAA TRACON SMA TRACON (SMA)
Sun 07:59:44 PM 39.0547 -91.0397 323° Northwest 387 445 20,700 1,500 Climbing FAA TRACON SMA TRACON (SMA)
Sun 08:00:03 PM 39.0881 -91.0725 323° Northwest 389 448 21,200 1,263 Climbing FAA TRACON SMA TRACON (SMA)
Sun 08:00:22 PM 39.1144 -91.0997 321° Northwest 393 452 21,500 900 Climbing FAA TRACON SMA TRACON (SMA)
Sun 08:00:43 PM 39.1411 -91.1275 321° Northwest 398 458 21,800 878 Climbing FAA TRACON SMA TRACON (SMA)
Sun 08:01:03 PM 39.1686 -91.1547 322° Northwest 403 464 22,100 1,231 Climbing FAA TRACON SMA TRACON (SMA)
Sun 08:01:22 PM 39.2033 -91.1897 322° Northwest 410 472 22,600 1,231 Climbing FAA TRACON SMA TRACON (SMA)
Sun 08:01:42 PM 39.2308 -91.2181 321° Northwest 413 475 22,900 1,024 Climbing FAA TRACON SMA TRACON (SMA)
Sun 08:02:03 PM 39.2586 -91.2472 321° Northwest 417 480 23,300 1,171 Climbing FAA TRACON SMA TRACON (SMA)
Sun 08:02:23 PM 39.2958 -91.2819 324° Northwest 423 487 23,700 1,050 Climbing FAA TRACON SMA TRACON (SMA)
Sun 08:02:43 PM 39.3242 -91.3119 321° Northwest 427 491 24,000 1,077 Climbing FAA TRACON SMA TRACON (SMA)
Sun 08:03:02 PM 39.3544 -91.3403 324° Northwest 433 498 24,400 1,091 Climbing FAA TRACON SMA TRACON (SMA)
Sun 08:03:49 PM 39.4242 -91.4750 304° West 434 499 25,200 881 Climbing Kansas City Center
Sun 08:04:51 PM 39.5281 -91.5839 321° Northwest 444 511 26,000 384 Climbing Kansas City Center
Sun 08:05:54 PM 39.6225 -91.6814 322° Northwest 440 506 26,000  Level Kansas City Center
Sun 08:06:55 PM 39.7131 -91.7783 321° Northwest 430 495 26,000  Level Kansas City Center
Sun 08:07:58 PM 39.8064 -91.8758 321° Northwest 431 496 26,000  Level Kansas City Center
Sun 08:08:58 PM 39.8992 -91.9733 321° Northwest 432 497 26,000  Level Kansas City Center
Sun 08:09:59 PM 39.9917 -92.0717 321° Northwest 432 497 26,000  Level Kansas City Center
Sun 08:11:03 PM 40.1036 -92.1892 321° Northwest 434 499 26,000  Level Kansas City Center
Sun 08:12:05 PM 40.1964 -92.2883 321° Northwest 436 502 26,000  Level Kansas City Center
Sun 08:13:05 PM 40.2858 -92.3839 321° Northwest 435 501 26,000 -393 Level Kansas City Center
Sun 08:14:07 PM 40.3828 -92.4897 320° Northwest 441 507 25,200 -960 Descending Kansas City Center
Sun 08:15:10 PM 40.4781 -92.5911 321° Northwest 441 507 24,000 -581 Descending Kansas City Center
Sun 08:16:11 PM 40.5811 -92.7031 320° Northwest 419 482 24,000  Level Kansas City Center
Sun 08:17:12 PM 40.6658 -92.7967 320° Northwest 419 482 24,000 -273 Level Kansas City Center
Sun 08:17:39 PM 40.7042 -92.8358 322° Northwest 428 493 23,600 -2,294 Descending Chicago Center
Sun 08:18:20 PM 40.7767 -92.9172 320° Northwest 430 495 21,400 -3,146 Descending Minneapolis Center
Sun 08:19:22 PM 40.8647 -93.0131 321° Northwest 420 483 18,200 -3,366 Descending Minneapolis Center
Sun 08:20:23 PM 40.9617 -93.1144 322° Northwest 393 452 14,500 -2,607 Descending Minneapolis Center
Sun 08:21:24 PM 41.0378 -93.2014 319° Northwest 363 418 12,900 -1,561 Descending Minneapolis Center
Sun 08:22:26 PM 41.1072 -93.2781 320° Northwest 330 380 11,300 -1,317 Descending Minneapolis Center
Sun 08:23:27 PM 41.1778 -93.3567 320° Northwest 309 356 10,200 -696 Descending Minneapolis Center
Sun 08:24:18 PM 41.2325 -93.4044 327° Northwest 305 351 10,000 -703 Descending Minneapolis Center
Sun 08:25:18 PM 41.3014 -93.4808 320° Northwest 301 346 8,900 -1,438 Descending Minneapolis Center
Sun 08:26:19 PM 41.3639 -93.5500 320° Northwest 296 341 7,100 -1,672 Descending Minneapolis Center
Sun 08:27:20 PM 41.4217 -93.6167 319° Northwest 277 319 5,500 -1,339 Descending Minneapolis Center
Sun 08:28:20 PM 41.4750 -93.6756 320° Northwest 249 287 4,400 -966 Descending Minneapolis Center
Sun 08:28:47 PM 41.4792 -93.6969 285° West 242 278 4,100 -787 Descending Minneapolis Center
Sun 08:29:21 PM 41.5156 -93.7331 323° Northwest 210 242 3,600 -677 Descending Minneapolis Center
Sun 08:29:49 PM 41.5217 -93.7672 283° West 191 220 3,400 -689 Descending Minneapolis Center
Sun 08:30:22 PM 41.5450 -93.7775 342° North 163 188 2,900 -885 Descending Minneapolis Center
Sun 08:30:50 PM 41.5586 -93.7758 North 164 189 2,500 -900 Descending Minneapolis Center
Sun 08:31:22 PM 41.5742 -93.7358 63° Northeast 168 193 2,000 -774 Descending Minneapolis Center
Sun 08:31:52 PM 41.5706 -93.7161 104° East 168 193 1,700 -689 Descending Minneapolis Center
Sun 08:32:23 PM 41.5653 -93.6839 102° East 145 167 1,300 -689 Descending Minneapolis Center
Sun 08:32:53 PM 41.5461 -93.6756 162° South 133 153 1,000 -600 Descending Minneapolis Center

Login

Don't have an account? Register now (free) for customized features, flight alerts, and more!